עמוד ראשי
METAR-TAF:

METAR-TAF

שדות תעופה :

North Perry Airport

הוליווד, פלורידה, ארצות הברית

קו רוחב: 25-59-56N, קו אורך: 080-14-28W, גובה: 2מטר

תצפית מזג אוויר נוכחית

הדו"ח נערך לפני 10דקות, בשעה 19:53 UTC
רוח 20קשר מכיוון מזרח עם משבים עד 26קשר
טמפרטורת 32 צלסיוס
לחות 56%
לחץ 1015 hPa
ראות: 16.1קילומטר
עננים פזורים בגובה 3000רגל
עננים בינוניים בגובה 3800רגל

METAR: KHWO 171953Z 08020G26KT 10SM SCT030 BKN038 32/22 A2997 RMK AO2 PK WND 05030/1918 SLP149 T03170217 $

זמן: 16:03 (20:03 UTC)


TAF: חסר

תצפיות ותחזיות מזג אוויר לגבי יותר מ- 4,000 שדות תעופה ברחבי העולם. דוחות METAR ו- TAF.

התחנות הזמינות מסומנות בנקודות צהובות ואדומות על גבי המפה.

העבר את העכבר לנקודה הצבעונית על מנת לראות את שם התחנה.

לאחר מכן, לחץ כדי לראות את תוכן ואת תחזיות מזג האוויר.

כדי לשנות את המפה: לחץ על הכפתורים הירוקים עם הפלוס השחור כדי להתקרב; על הכפתור הירוק עם המקף כדי להתרחק; או בחיצים הירוקים למפות סמוכות.


METAR-TAF: